createdAt,value
2018-11-06T00:00:55.958Z,7.12
2018-11-06T00:04:30.555Z,7.23
2018-11-06T00:07:00.573Z,7.14
2018-11-06T00:09:30.813Z,7.18
2018-11-06T00:12:00.556Z,7.22
2018-11-06T00:14:30.133Z,7.13
2018-11-06T00:16:59.762Z,7.21
2018-11-06T00:19:29.585Z,7.15
2018-11-06T00:21:59.515Z,7.04
2018-11-06T00:24:29.408Z,6.98
2018-11-06T00:26:59.161Z,7.06
2018-11-06T00:29:28.881Z,6.99
2018-11-06T00:31:58.651Z,7.02
2018-11-06T00:34:28.246Z,6.93
2018-11-06T00:36:57.831Z,6.89
2018-11-06T00:39:27.853Z,6.92
2018-11-06T00:41:57.480Z,6.96
2018-11-06T00:44:27.882Z,6.83
2018-11-06T00:46:57.622Z,6.83
2018-11-06T00:49:27.181Z,6.82
2018-11-06T00:51:56.900Z,6.90
2018-11-06T00:54:27.770Z,6.84
2018-11-06T00:56:57.451Z,6.94
2018-11-06T00:59:27.263Z,6.99
2018-11-06T01:01:57.168Z,6.97
2018-11-06T01:04:26.780Z,6.90
2018-11-06T01:06:56.617Z,6.86
2018-11-06T01:09:26.510Z,6.86
2018-11-06T01:11:56.201Z,6.83
2018-11-06T01:14:25.928Z,6.86
2018-11-06T01:16:55.817Z,6.81
2018-11-06T01:19:25.859Z,6.66
2018-11-06T01:21:55.433Z,6.54
2018-11-06T01:24:25.845Z,6.44
2018-11-06T01:26:55.887Z,6.43
2018-11-06T01:29:25.676Z,6.44
2018-11-06T01:31:55.262Z,6.46
2018-11-06T01:34:24.819Z,6.42
2018-11-06T01:36:54.548Z,6.39
2018-11-06T01:39:25.191Z,6.40
2018-11-06T01:41:54.920Z,6.36
2018-11-06T01:44:24.545Z,6.33
2018-11-06T01:46:54.182Z,6.26
2018-11-06T01:49:23.730Z,6.36
2018-11-06T01:51:53.621Z,6.31
2018-11-06T01:54:24.188Z,6.36
2018-11-06T01:56:54.171Z,6.30
2018-11-06T01:59:23.830Z,6.26
2018-11-06T02:01:53.340Z,6.19
2018-11-06T02:04:23.115Z,6.21
2018-11-06T02:06:52.995Z,6.11
2018-11-06T02:09:22.661Z,6.01
2018-11-06T02:11:52.514Z,6.07
2018-11-06T02:14:22.297Z,6.06
2018-11-06T02:16:52.094Z,6.04
2018-11-06T02:19:21.702Z,6.09
2018-11-06T02:21:51.373Z,6.01
2018-11-06T02:24:21.011Z,5.96
2018-11-06T02:26:51.572Z,5.98
2018-11-06T02:29:21.130Z,5.91
2018-11-06T02:31:50.922Z,5.97
2018-11-06T02:34:20.481Z,6.03
2018-11-06T02:36:50.142Z,6.04
2018-11-06T02:39:19.762Z,6.14
2018-11-06T02:41:49.531Z,6.14
2018-11-06T02:44:19.541Z,6.35
2018-11-06T02:46:49.200Z,6.25
2018-11-06T02:49:18.782Z,6.15
2018-11-06T02:51:48.572Z,6.11
2018-11-06T02:54:18.131Z,6.07
2018-11-06T02:56:47.848Z,5.95
2018-11-06T02:59:18.297Z,5.91
2018-11-06T03:01:47.995Z,5.95
2018-11-06T03:04:18.164Z,5.88
2018-11-06T03:06:47.739Z,5.79
2018-11-06T03:09:17.653Z,5.84
2018-11-06T03:11:47.472Z,5.89
2018-11-06T03:14:17.159Z,5.89
2018-11-06T03:16:46.713Z,5.87
2018-11-06T03:19:16.708Z,5.78
2018-11-06T03:21:46.531Z,5.66
2018-11-06T03:24:16.173Z,5.72
2018-11-06T03:26:46.793Z,5.80
2018-11-06T03:29:16.373Z,5.91
2018-11-06T03:31:46.911Z,5.88
2018-11-06T03:34:16.491Z,5.64
2018-11-06T03:36:47.238Z,5.52
2018-11-06T03:39:17.652Z,5.46
2018-11-06T03:41:47.372Z,5.30
2018-11-06T03:44:17.133Z,5.28
2018-11-06T03:46:47.090Z,5.28
2018-11-06T03:49:16.842Z,5.22
2018-11-06T03:51:46.465Z,5.19
2018-11-06T03:54:16.076Z,5.17
2018-11-06T03:56:45.710Z,5.00
2018-11-06T03:59:15.652Z,5.05
2018-11-06T04:01:45.244Z,5.05
2018-11-06T04:04:14.994Z,4.98
2018-11-06T04:06:44.781Z,4.94
2018-11-06T04:09:14.597Z,4.92
2018-11-06T04:11:44.187Z,4.92
2018-11-06T04:14:14.229Z,4.96
2018-11-06T04:16:44.241Z,4.97
2018-11-06T04:19:14.088Z,4.93
2018-11-06T04:21:43.692Z,4.98
2018-11-06T04:24:15.600Z,5.03
2018-11-06T04:26:45.304Z,4.95
2018-11-06T04:29:15.024Z,5.01
2018-11-06T04:31:44.765Z,4.97
2018-11-06T04:34:14.827Z,4.95
2018-11-06T04:36:44.341Z,4.98
2018-11-06T04:39:13.953Z,4.98
2018-11-06T04:41:43.741Z,4.97
2018-11-06T04:44:13.535Z,5.05
2018-11-06T04:46:43.274Z,5.10
2018-11-06T04:49:13.754Z,5.01
2018-11-06T04:51:43.266Z,3.73
2018-11-06T04:54:13.765Z,5.02
2018-11-06T04:56:43.682Z,5.04
2018-11-06T04:59:13.509Z,4.89
2018-11-06T05:01:43.145Z,4.85
2018-11-06T05:04:12.829Z,4.74
2018-11-06T05:06:42.739Z,4.67
2018-11-06T05:09:12.622Z,4.62
2018-11-06T05:11:42.287Z,4.49
2018-11-06T05:14:12.179Z,4.47
2018-11-06T05:16:42.014Z,4.42
2018-11-06T05:19:12.194Z,4.42
2018-11-06T05:21:41.751Z,4.56
2018-11-06T05:24:11.390Z,4.54
2018-11-06T05:26:41.148Z,4.63
2018-11-06T05:29:10.868Z,4.75
2018-11-06T05:31:40.839Z,4.92
2018-11-06T05:34:10.525Z,5.08
2018-11-06T05:40:06.101Z,5.12
2018-11-06T05:42:36.071Z,5.33
2018-11-06T05:45:05.878Z,5.97
2018-11-06T05:47:35.599Z,6.75
2018-11-06T05:50:05.540Z,7.39
2018-11-06T05:52:36.176Z,8.22
2018-11-06T05:55:06.463Z,8.32
2018-11-06T05:57:37.452Z,8.98
2018-11-06T06:00:09.705Z,9.53
2018-11-06T06:02:39.555Z,10.05
2018-11-06T06:05:09.931Z,10.62
2018-11-06T06:07:39.513Z,10.55
2018-11-06T06:10:09.470Z,10.92
2018-11-06T06:12:39.365Z,11.22
2018-11-06T06:15:10.042Z,11.66
2018-11-06T06:17:40.144Z,12.25
2018-11-06T06:20:11.039Z,12.15
2018-11-06T06:22:40.926Z,13.72
2018-11-06T06:25:10.783Z,13.60
2018-11-06T06:27:40.657Z,13.73
2018-11-06T06:30:14.135Z,14.12
2018-11-06T06:32:43.915Z,13.84
2018-11-06T06:35:13.936Z,14.52
2018-11-06T06:37:43.944Z,14.53
2018-11-06T06:40:16.022Z,15.43
2018-11-06T06:42:46.342Z,15.16
2018-11-06T06:45:17.430Z,15.63
2018-11-06T06:47:47.421Z,15.05
2018-11-06T06:50:18.428Z,15.38
2018-11-06T06:52:48.911Z,14.63
2018-11-06T06:55:23.295Z,14.85
2018-11-06T06:57:53.241Z,14.64
2018-11-06T07:00:23.901Z,14.92
2018-11-06T07:02:53.939Z,15.62
2018-11-06T07:05:24.502Z,15.98
2018-11-06T07:07:54.351Z,16.25
2018-11-06T07:10:24.462Z,16.34
2018-11-06T07:12:54.254Z,16.71
2018-11-06T07:15:24.208Z,16.91
2018-11-06T07:17:54.135Z,16.23
2018-11-06T07:20:25.403Z,16.59
2018-11-06T07:22:55.157Z,17.14
2018-11-06T07:25:24.886Z,17.04
2018-11-06T07:27:54.778Z,17.05
2018-11-06T07:30:24.650Z,17.16
2018-11-06T07:32:54.534Z,17.53
2018-11-06T07:35:24.378Z,17.27
2018-11-06T07:37:54.224Z,17.67
2018-11-06T07:40:23.968Z,17.01
2018-11-06T07:42:53.633Z,17.70
2018-11-06T07:45:23.255Z,18.45
2018-11-06T07:47:52.898Z,17.87
2018-11-06T07:50:22.495Z,18.12
2018-11-06T07:52:52.173Z,18.07
2018-11-06T07:55:21.986Z,18.50
2018-11-06T07:57:51.854Z,18.95
2018-11-06T08:00:26.353Z,19.22
2018-11-06T08:02:56.144Z,19.34
2018-11-06T08:05:26.129Z,19.62
2018-11-06T08:07:55.872Z,19.06
2018-11-06T08:10:25.414Z,19.34
2018-11-06T08:12:55.059Z,20.54
2018-11-06T08:15:24.655Z,20.61
2018-11-06T08:17:54.457Z,20.47
2018-11-06T08:20:24.334Z,20.39
2018-11-06T08:22:53.858Z,20.61
2018-11-06T08:25:23.552Z,21.48
2018-11-06T08:27:53.690Z,20.81
2018-11-06T08:30:23.449Z,20.70
2018-11-06T08:32:53.492Z,20.87
2018-11-06T08:35:23.171Z,20.49
2018-11-06T08:37:52.871Z,21.22
2018-11-06T08:40:22.704Z,21.31
2018-11-06T08:42:52.643Z,21.76
2018-11-06T08:45:22.522Z,20.63
2018-11-06T08:47:52.211Z,20.74
2018-11-06T08:50:21.938Z,21.88
2018-11-06T08:52:51.758Z,21.44
2018-11-06T08:55:21.485Z,20.75
2018-11-06T08:57:51.087Z,21.84
2018-11-06T09:00:20.914Z,21.61
2018-11-06T09:02:50.893Z,20.91
2018-11-06T09:05:20.854Z,22.33
2018-11-06T09:07:50.815Z,22.96
2018-11-06T09:10:20.898Z,22.29
2018-11-06T09:12:50.755Z,22.05
2018-11-06T09:15:21.498Z,23.56
2018-11-06T09:17:52.107Z,22.85
2018-11-06T09:20:21.980Z,22.42
2018-11-06T09:22:51.907Z,22.27
2018-11-06T09:25:21.952Z,23.80
2018-11-06T09:27:51.767Z,24.94
2018-11-06T09:30:21.572Z,24.24
2018-11-06T09:32:52.361Z,23.63
2018-11-06T09:35:22.183Z,23.41
2018-11-06T09:37:51.759Z,22.96
2018-11-06T09:40:22.044Z,23.04
2018-11-06T09:42:51.999Z,23.13
2018-11-06T09:45:22.707Z,23.78
2018-11-06T09:47:52.417Z,22.75
2018-11-06T09:50:22.055Z,22.99
2018-11-06T09:52:51.748Z,22.98
2018-11-06T09:55:21.614Z,22.99
2018-11-06T09:57:51.836Z,22.78
2018-11-06T10:00:21.708Z,21.64
2018-11-06T10:02:51.408Z,21.86
2018-11-06T10:05:21.094Z,22.42
2018-11-06T10:07:51.089Z,22.32
2018-11-06T10:10:20.690Z,22.51
2018-11-06T10:12:50.524Z,22.57
2018-11-06T10:15:21.438Z,22.35
2018-11-06T10:17:51.973Z,23.26
2018-11-06T10:20:22.080Z,23.09
2018-11-06T10:22:52.280Z,23.29
2018-11-06T10:25:22.739Z,23.14
2018-11-06T10:27:52.562Z,24.12
2018-11-06T10:30:22.739Z,25.74
2018-11-06T10:32:52.285Z,25.38
2018-11-06T10:35:22.165Z,24.69
2018-11-06T10:37:51.850Z,23.65
2018-11-06T10:40:22.780Z,24.77
2018-11-06T10:42:52.606Z,25.14
2018-11-06T10:45:22.163Z,25.20
2018-11-06T10:47:51.744Z,26.07
2018-11-06T10:50:21.550Z,25.65
2018-11-06T10:52:51.244Z,23.90
2018-11-06T10:55:20.937Z,23.99
2018-11-06T10:57:50.813Z,23.96
2018-11-06T11:00:25.319Z,23.65
2018-11-06T11:02:59.922Z,23.25
2018-11-06T11:05:30.648Z,23.69
2018-11-06T11:08:00.252Z,23.30
2018-11-06T11:10:29.982Z,23.14
2018-11-06T11:12:59.680Z,23.83
2018-11-06T11:15:29.534Z,24.01
2018-11-06T11:17:59.158Z,23.87
2018-11-06T11:20:28.863Z,24.28
2018-11-06T11:22:58.809Z,24.21
2018-11-06T11:25:28.454Z,24.08
2018-11-06T11:27:59.197Z,24.28
2018-11-06T11:30:28.867Z,23.95
2018-11-06T11:32:58.809Z,23.85
2018-11-06T11:35:28.747Z,23.65
2018-11-06T11:37:58.556Z,23.72
2018-11-06T11:40:28.351Z,23.32
2018-11-06T11:42:58.002Z,23.12
2018-11-06T11:45:27.748Z,23.41
2018-11-06T11:47:57.767Z,23.24
2018-11-06T11:50:27.719Z,24.39
2018-11-06T11:52:57.681Z,23.46
2018-11-06T11:55:27.885Z,22.88
2018-11-06T11:57:58.720Z,22.67
2018-11-06T12:00:29.279Z,23.29
2018-11-06T12:02:59.209Z,23.80
2018-11-06T12:05:30.060Z,23.02
2018-11-06T12:07:59.741Z,23.27
2018-11-06T12:10:29.718Z,23.13
2018-11-06T12:12:59.655Z,22.60
2018-11-06T12:15:29.397Z,22.58
2018-11-06T12:17:59.752Z,22.18
2018-11-06T12:20:29.593Z,21.45
2018-11-06T12:22:59.415Z,21.60
2018-11-06T12:25:29.844Z,20.70
2018-11-06T12:27:59.173Z,20.42
2018-11-06T12:30:28.974Z,20.13
2018-11-06T12:32:58.494Z,19.85
2018-11-06T12:35:28.035Z,20.28
2018-11-06T12:37:57.632Z,20.25
2018-11-06T12:40:27.160Z,20.16
2018-11-06T12:42:56.713Z,20.10
2018-11-06T12:45:26.161Z,20.22
2018-11-06T12:47:55.640Z,20.07
2018-11-06T12:50:25.208Z,19.77
2018-11-06T12:52:55.674Z,20.03
2018-11-06T12:55:25.265Z,19.90
2018-11-06T12:57:55.196Z,19.79
2018-11-06T13:00:25.766Z,19.97
2018-11-06T13:02:55.412Z,19.76
2018-11-06T13:05:25.082Z,19.61
2018-11-06T13:07:54.915Z,19.68
2018-11-06T13:10:24.739Z,19.64
2018-11-06T13:12:54.494Z,19.58
2018-11-06T13:15:25.305Z,19.51
2018-11-06T13:17:54.941Z,19.72
2018-11-06T13:20:24.696Z,19.65
2018-11-06T13:22:54.477Z,19.49
2018-11-06T13:25:24.345Z,19.57
2018-11-06T13:27:54.099Z,19.50
2018-11-06T13:30:25.781Z,19.71
2018-11-06T13:32:55.669Z,19.65
2018-11-06T13:35:25.601Z,19.60
2018-11-06T13:37:55.251Z,19.66
2018-11-06T13:40:25.103Z,19.62
2018-11-06T13:42:55.791Z,19.35
2018-11-06T13:45:26.495Z,19.38
2018-11-06T13:47:55.988Z,19.52
2018-11-06T13:50:25.981Z,19.57
2018-11-06T13:52:55.671Z,19.29
2018-11-06T13:55:25.186Z,19.42
2018-11-06T13:57:55.079Z,19.27
2018-11-06T14:00:24.549Z,19.24
2018-11-06T14:02:54.078Z,19.23
2018-11-06T14:05:23.830Z,19.24
2018-11-06T14:07:53.593Z,19.30
2018-11-06T14:10:23.432Z,19.37
2018-11-06T14:12:53.083Z,19.14
2018-11-06T14:15:22.729Z,19.03
2018-11-06T14:17:52.213Z,19.03
2018-11-06T14:20:22.020Z,18.99
2018-11-06T14:22:52.126Z,18.93
2018-11-06T14:25:22.182Z,18.95
2018-11-06T14:27:51.892Z,18.76
2018-11-06T14:30:21.448Z,18.56
2018-11-06T14:32:52.068Z,18.44
2018-11-06T14:35:21.582Z,18.28
2018-11-06T14:37:51.052Z,18.29
2018-11-06T14:40:21.046Z,18.21
2018-11-06T14:42:50.978Z,18.05
2018-11-06T14:45:20.723Z,17.88
2018-11-06T14:47:50.588Z,17.59
2018-11-06T14:50:20.281Z,17.43
2018-11-06T14:52:49.965Z,17.44
2018-11-06T14:55:19.904Z,17.25
2018-11-06T14:57:49.390Z,17.04
2018-11-06T15:00:20.149Z,16.92
2018-11-06T15:02:51.212Z,16.76
2018-11-06T15:05:21.625Z,16.63
2018-11-06T15:07:51.142Z,16.65
2018-11-06T15:10:20.691Z,16.50
2018-11-06T15:12:50.397Z,16.39
2018-11-06T15:15:19.886Z,16.13
2018-11-06T15:17:49.681Z,16.13
2018-11-06T15:20:22.294Z,15.91
2018-11-06T15:22:51.823Z,15.80
2018-11-06T15:25:22.079Z,15.76
2018-11-06T15:27:51.464Z,15.47
2018-11-06T15:30:21.130Z,15.41
2018-11-06T15:32:50.641Z,15.26
2018-11-06T15:35:21.472Z,15.14
2018-11-06T15:37:50.961Z,15.00
2018-11-06T15:40:21.431Z,15.01
2018-11-06T15:42:51.585Z,14.86
2018-11-06T15:45:21.336Z,14.66
2018-11-06T15:47:51.181Z,14.52
2018-11-06T15:50:21.591Z,14.48
2018-11-06T15:52:51.805Z,14.46
2018-11-06T15:55:21.546Z,14.37
2018-11-06T15:57:51.079Z,14.14
2018-11-06T16:00:22.392Z,14.01
2018-11-06T16:02:52.207Z,13.92
2018-11-06T16:05:21.823Z,13.87
2018-11-06T16:07:51.696Z,13.82
2018-11-06T16:10:22.458Z,13.81
2018-11-06T16:12:52.053Z,13.78
2018-11-06T16:15:21.631Z,13.64
2018-11-06T16:17:51.215Z,13.66
2018-11-06T16:20:22.064Z,13.60
2018-11-06T16:22:51.532Z,13.69
2018-11-06T16:25:21.600Z,13.70
2018-11-06T16:27:51.544Z,13.64
2018-11-06T16:30:22.228Z,13.59
2018-11-06T16:32:51.816Z,13.56
2018-11-06T16:35:22.489Z,13.47
2018-11-06T16:37:52.298Z,13.36
2018-11-06T16:40:21.765Z,13.40
2018-11-06T16:42:51.320Z,13.47
2018-11-06T16:45:22.159Z,13.36
2018-11-06T16:47:52.407Z,13.33
2018-11-06T16:50:22.117Z,13.22
2018-11-06T16:52:51.600Z,13.11
2018-11-06T16:55:21.496Z,13.07
2018-11-06T16:57:51.133Z,13.02
2018-11-06T17:00:25.237Z,12.85
2018-11-06T17:02:54.590Z,12.76
2018-11-06T17:05:24.059Z,12.78
2018-11-06T17:07:53.676Z,12.76
2018-11-06T17:10:23.324Z,12.68
2018-11-06T17:12:52.850Z,12.57
2018-11-06T17:15:23.536Z,12.46
2018-11-06T17:17:54.493Z,12.36
2018-11-06T17:20:24.265Z,12.30
2018-11-06T17:22:53.878Z,12.24
2018-11-06T17:25:24.155Z,12.22
2018-11-06T17:27:53.714Z,12.15
2018-11-06T17:30:23.191Z,12.12
2018-11-06T17:32:52.721Z,12.07
2018-11-06T17:35:22.404Z,12.07
2018-11-06T17:37:51.905Z,12.00
2018-11-06T17:40:22.117Z,11.98
2018-11-06T17:42:51.658Z,11.98
2018-11-06T17:45:23.305Z,11.84
2018-11-06T17:47:52.868Z,11.87
2018-11-06T17:50:22.552Z,11.82
2018-11-06T17:52:52.128Z,11.72
2018-11-06T17:55:22.223Z,11.59
2018-11-06T17:57:51.782Z,11.36
2018-11-06T18:00:23.916Z,11.24
2018-11-06T18:02:53.973Z,11.31
2018-11-06T18:05:25.055Z,11.41
2018-11-06T18:07:55.473Z,11.41
2018-11-06T18:10:25.059Z,11.42
2018-11-06T18:12:54.490Z,11.32
2018-11-06T18:15:24.059Z,11.30
2018-11-06T18:17:53.931Z,11.31
2018-11-06T18:20:23.321Z,11.34
2018-11-06T18:22:52.825Z,11.31
2018-11-06T18:29:08.762Z,11.28
2018-11-06T18:31:39.036Z,11.21
2018-11-06T18:34:08.548Z,11.19
2018-11-06T18:36:37.997Z,10.98
2018-11-06T18:39:11.127Z,10.89
2018-11-06T18:41:40.665Z,10.89
2018-11-06T18:44:10.854Z,10.90
2018-11-06T18:46:40.685Z,10.94
2018-11-06T18:49:10.151Z,10.90
2018-11-06T18:51:39.725Z,10.86
2018-11-06T18:54:09.288Z,10.84
2018-11-06T18:56:38.862Z,10.86
2018-11-06T18:59:08.578Z,10.74
2018-11-06T19:01:38.081Z,10.79
2018-11-06T19:04:08.165Z,10.70
2018-11-06T19:06:37.740Z,10.74
2018-11-06T19:09:10.263Z,10.73
2018-11-06T19:11:40.010Z,10.69
2018-11-06T19:14:09.705Z,10.49
2018-11-06T19:16:39.217Z,10.61
2018-11-06T19:19:08.995Z,10.53
2018-11-06T19:21:38.508Z,10.35
2018-11-06T19:24:08.076Z,10.41
2018-11-06T19:26:37.619Z,10.38
2018-11-06T19:29:07.601Z,10.49
2018-11-06T19:31:37.050Z,10.53
2018-11-06T19:34:06.898Z,10.28
2018-11-06T19:36:36.622Z,10.27
2018-11-06T19:39:09.645Z,10.21
2018-11-06T19:41:39.109Z,10.20
2018-11-06T19:44:09.180Z,10.10
2018-11-06T19:46:38.867Z,10.07
2018-11-06T19:49:08.428Z,9.98
2018-11-06T19:51:38.109Z,9.92
2018-11-06T19:54:07.713Z,9.92
2018-11-06T19:56:37.221Z,9.89
2018-11-06T19:59:06.805Z,9.84
2018-11-06T20:01:36.472Z,9.76
2018-11-06T20:04:06.488Z,9.86
2018-11-06T20:06:36.045Z,9.88
2018-11-06T20:09:07.678Z,9.84
2018-11-06T20:11:37.816Z,9.74
2018-11-06T20:14:08.319Z,9.76
2018-11-06T20:16:38.139Z,9.59
2018-11-06T20:19:07.687Z,9.54
2018-11-06T20:21:37.484Z,9.36
2018-11-06T20:24:07.176Z,9.43
2018-11-06T20:26:36.610Z,9.50
2018-11-06T20:29:06.259Z,9.47
2018-11-06T20:31:36.529Z,9.42
2018-11-06T20:34:06.371Z,9.41
2018-11-06T20:36:36.604Z,9.40
2018-11-06T20:39:08.489Z,9.38
2018-11-06T20:41:38.158Z,9.38
2018-11-06T20:44:07.785Z,9.37
2018-11-06T20:46:37.807Z,9.30
2018-11-06T20:49:07.699Z,9.22
2018-11-06T20:51:37.230Z,9.24
2018-11-06T20:54:07.236Z,9.17
2018-11-06T20:56:37.621Z,9.12
2018-11-06T20:59:08.089Z,9.12
2018-11-06T21:01:39.504Z,9.17
2018-11-06T21:04:09.411Z,9.15
2018-11-06T21:06:38.912Z,9.11
2018-11-06T21:09:11.549Z,9.04
2018-11-06T21:11:41.403Z,8.99
2018-11-06T21:14:10.903Z,9.00
2018-11-06T21:16:40.406Z,8.99
2018-11-06T21:19:09.911Z,8.90
2018-11-06T21:21:39.851Z,8.92
2018-11-06T21:24:09.552Z,8.94
2018-11-06T21:26:39.096Z,8.90
2018-11-06T21:29:08.665Z,8.91
2018-11-06T21:31:38.265Z,8.88
2018-11-06T21:34:08.228Z,8.90
2018-11-06T21:36:39.214Z,8.83
2018-11-06T21:39:10.372Z,8.69
2018-11-06T21:41:39.983Z,8.75
2018-11-06T21:44:09.594Z,8.66
2018-11-06T21:46:39.169Z,8.59
2018-11-06T21:49:08.668Z,8.61
2018-11-06T21:51:39.160Z,8.74
2018-11-06T21:54:08.645Z,8.57
2018-11-06T21:56:38.226Z,8.57
2018-11-06T21:59:07.917Z,8.51
2018-11-06T22:01:37.742Z,8.51
2018-11-06T22:04:07.208Z,8.47
2018-11-06T22:06:36.589Z,8.50
2018-11-06T22:09:07.509Z,8.42
2018-11-06T22:11:36.886Z,8.51
2018-11-06T22:14:06.573Z,8.46
2018-11-06T22:16:36.844Z,8.43
2018-11-06T22:19:06.241Z,8.47
2018-11-06T22:21:35.662Z,8.49
2018-11-06T22:24:05.164Z,8.49
2018-11-06T22:26:34.595Z,8.39
2018-11-06T22:29:04.136Z,8.36
2018-11-06T22:31:33.582Z,8.24
2018-11-06T22:34:02.864Z,8.25
2018-11-06T22:36:32.734Z,8.30
2018-11-06T22:39:02.105Z,8.30
2018-11-06T22:41:31.480Z,8.28
2018-11-06T22:44:00.884Z,8.20
2018-11-06T22:46:30.192Z,8.20
2018-11-06T22:48:59.711Z,8.20
2018-11-06T22:51:29.146Z,8.31
2018-11-06T22:53:58.761Z,8.30
2018-11-06T22:56:28.464Z,7.28
2018-11-06T22:58:58.102Z,8.31
2018-11-06T23:01:27.642Z,8.21
2018-11-06T23:03:57.212Z,8.22
2018-11-06T23:06:26.770Z,8.18
2018-11-06T23:08:56.278Z,8.07
2018-11-06T23:11:25.757Z,8.02
2018-11-06T23:13:56.253Z,7.99
2018-11-06T23:16:26.591Z,7.93
2018-11-06T23:18:56.633Z,7.86
2018-11-06T23:21:26.232Z,7.93
2018-11-06T23:23:55.722Z,7.87
2018-11-06T23:26:25.214Z,7.92
2018-11-06T23:28:54.736Z,7.88
2018-11-06T23:31:24.242Z,7.88
2018-11-06T23:33:53.692Z,6.57
2018-11-06T23:36:23.075Z,7.70
2018-11-06T23:38:52.417Z,7.70
2018-11-06T23:41:21.970Z,7.72
2018-11-06T23:43:51.375Z,7.67
2018-11-06T23:46:20.785Z,7.71
2018-11-06T23:48:50.151Z,7.66
2018-11-06T23:51:19.554Z,7.63
2018-11-06T23:53:48.911Z,7.66
2018-11-06T23:56:18.286Z,7.56
2018-11-06T23:58:51.502Z,7.53
